»·PEaware :: N2494V KSAN-KBUR

N2494V :: KSAN-KBUR

FLIGHT INFORMATION

Flight Status: Arrived
Operator: Privately registered:
United States
More flights under this callsign
Pilot: Sally S. (18014)
Aircraft: Unknown
(DA62)
More flights by this aircraft type
Origin: KSAN San Diego Intl-Lindbergh
United States
Destination: KBUR Bob Hope-Burbank
United States
More flights between these airports :: More routes between these airports
Route: +OCN V23 POPPR SMO SILEX
File this flight plan on PilotEdge
Remarks:
Altitude:
(Current/Filed)
6,000ft
Speed:
(Current/Filed)
163kts
Departed: 15-Apr-18 12:04 PM
Arrived: 15-Apr-18 12:55 PM
Distance/Time
Traveled:
106nm/0:51
Distance/Time
To Go:
Arrived

Flight Plot

Page will automatically refresh every two minutes.

Flight plan parsing failed; only flown route is shown


Map Options




Map Legend


Flown Route
Filed Route
Departure Airport
Arrival Airport
Navaid (VOR, NDB)
Fix

Horizontal Profiles

Position Reports

Time Latitude Longitude Heading Altitude Ground
Speed
15-Apr-18 11:36 32.734686 -117.186899 199 21ft 0kts
15-Apr-18 11:37 32.734686 -117.186899 199 21ft 0kts
15-Apr-18 11:38 32.734686 -117.186899 199 21ft 0kts
15-Apr-18 11:39 32.734686 -117.186899 199 21ft 0kts
15-Apr-18 11:40 32.734686 -117.186899 199 21ft 0kts
15-Apr-18 11:41 32.734686 -117.186899 199 21ft 0kts
15-Apr-18 11:42 32.734686 -117.186899 199 21ft 0kts
15-Apr-18 11:43 32.734686 -117.186899 199 21ft 0kts
15-Apr-18 11:44 32.734686 -117.186899 199 21ft 0kts
15-Apr-18 11:45 32.734686 -117.186899 199 21ft 0kts
15-Apr-18 11:46 32.734686 -117.186899 199 21ft 0kts
15-Apr-18 11:47 32.734686 -117.186899 199 21ft 0kts
15-Apr-18 11:48 32.734686 -117.186899 199 21ft 0kts
15-Apr-18 11:49 32.734686 -117.186899 199 21ft 0kts
15-Apr-18 11:50 32.734686 -117.186899 199 21ft 0kts
15-Apr-18 11:51 32.734686 -117.186899 199 21ft 0kts
15-Apr-18 11:52 32.734686 -117.186899 199 21ft 0kts
15-Apr-18 11:53 32.734686 -117.186899 199 21ft 0kts
15-Apr-18 11:54 32.734686 -117.186899 199 21ft 0kts
15-Apr-18 11:55 32.734686 -117.186899 199 21ft 0kts
15-Apr-18 11:56 32.734686 -117.186899 199 21ft 0kts
15-Apr-18 11:57 32.734686 -117.186899 199 21ft 0kts
15-Apr-18 11:58 32.734686 -117.186899 199 21ft 0kts
15-Apr-18 11:59 32.733735 -117.185513 106 21ft 19kts
15-Apr-18 12:00 32.732348 -117.179885 107 21ft 16kts
15-Apr-18 12:01 32.731269 -117.176707 190 21ft 0kts
15-Apr-18 12:02 32.731266 -117.176707 190 21ft 0kts
15-Apr-18 12:03 32.733946 -117.191225 282 252ft 101kts
15-Apr-18 12:04 32.745971 -117.216049 321 1798ft 87kts
15-Apr-18 12:05 32.767827 -117.234754 321 3045ft 100kts
15-Apr-18 12:06 32.790784 -117.253958 321 4177ft 102kts
15-Apr-18 12:07 32.814759 -117.273618 321 5237ft 109kts
15-Apr-18 12:08 32.845838 -117.283258 342 5984ft 136kts
15-Apr-18 12:09 32.887236 -117.296437 342 5976ft 163kts
15-Apr-18 12:10 32.931287 -117.311331 342 5973ft 166kts
15-Apr-18 12:11 32.975835 -117.326587 342 5972ft 166kts
15-Apr-18 12:12 33.020151 -117.341814 342 5971ft 167kts
15-Apr-18 12:13 33.064663 -117.357135 343 5971ft 167kts
15-Apr-18 12:14 33.108707 -117.372308 342 5973ft 167kts
15-Apr-18 12:15 33.149271 -117.386293 342 5974ft 168kts
15-Apr-18 12:16 33.194179 -117.401802 342 5975ft 168kts
15-Apr-18 12:17 33.238815 -117.417696 330 5968ft 167kts
15-Apr-18 12:18 33.272582 -117.455156 315 5978ft 166kts
15-Apr-18 12:19 33.305727 -117.493693 314 5981ft 166kts
15-Apr-18 12:20 33.338763 -117.532215 314 5984ft 166kts
15-Apr-18 12:21 33.371786 -117.570771 313 5995ft 166kts
15-Apr-18 12:22 33.404762 -117.609327 313 5998ft 166kts
15-Apr-18 12:23 33.437825 -117.648061 313 5995ft 166kts
15-Apr-18 12:24 33.470013 -117.685790 314 5992ft 166kts
15-Apr-18 12:25 33.502987 -117.724455 314 5987ft 166kts
15-Apr-18 12:26 33.536023 -117.763232 315 5984ft 167kts
15-Apr-18 12:27 33.569132 -117.802138 315 5982ft 167kts
15-Apr-18 12:28 33.602239 -117.841082 315 5981ft 167kts
15-Apr-18 12:29 33.635478 -117.880206 314 5981ft 167kts
15-Apr-18 12:30 33.668409 -117.919054 314 5981ft 167kts
15-Apr-18 12:31 33.700672 -117.958118 301 5977ft 167kts
15-Apr-18 12:32 33.723637 -118.010324 295 5402ft 183kts
15-Apr-18 12:33 33.747301 -118.065436 294 4725ft 190kts
15-Apr-18 12:34 33.771698 -118.122328 295 4003ft 189kts
15-Apr-18 12:35 33.794355 -118.175253 295 3982ft 171kts
15-Apr-18 12:36 33.815506 -118.224804 295 4067ft 165kts
15-Apr-18 12:37 33.836480 -118.273999 296 4069ft 165kts
15-Apr-18 12:38 33.867683 -118.313571 320 4071ft 166kts
15-Apr-18 12:39 33.903163 -118.349099 320 4073ft 166kts
15-Apr-18 12:40 33.938518 -118.384594 319 4074ft 166kts
15-Apr-18 12:41 33.973917 -118.420196 318 4076ft 167kts
15-Apr-18 12:42 34.009319 -118.455806 319 4076ft 169kts
15-Apr-18 12:43 34.048519 -118.487809 323 4079ft 171kts
15-Apr-18 12:44 34.086064 -118.523199 311 4072ft 171kts
15-Apr-18 12:45 34.118325 -118.563607 313 4067ft 168kts
15-Apr-18 12:46 34.156381 -118.591134 351 4064ft 170kts
15-Apr-18 12:47 34.203093 -118.598039 351 4059ft 168kts
15-Apr-18 12:48 34.238304 -118.579214 94 4054ft 173kts
15-Apr-18 12:49 34.228240 -118.522170 101 4057ft 174kts
15-Apr-18 12:50 34.217309 -118.466281 101 3571ft 162kts
15-Apr-18 12:51 34.206956 -118.425571 118 2397ft 102kts
15-Apr-18 12:52 34.198190 -118.396429 94 1389ft 91kts
15-Apr-18 12:53 34.197896 -118.367078 94 804ft 75kts
15-Apr-18 12:54 34.199227 -118.360191 19 780ft 10kts
15-Apr-18 12:55 34.200040 -118.359006 275 780ft 0kts

Navigation Log

Ident Type
Flight plan parsing failed, navigation log unavailable